Scali Del Teatro — 9HA3541 — position and weather

sailwx.info

Track history (hours):
 
Tides and Currents Weather Stations Pressure Air Temp Water Temp Dewpoint Dewpoint Depression Visibility Wind Speed Wind Dir Waves Ship Positions

Scali Del Teatro

Last reported at 2018-Feb-21 06:39 UTC. Time now 2018-Feb-22 07:03 UTC.
Position N 37°32' W 001°00'.

Length 88 m; draft 4.8 m.

Type: Ship (hazmat cat D). MMSI: 229713000.

Date/timePositionNaut miles runAvg speedWind from/ knotsBaromVisibWave heightAir tempDewpointWater temp
2018-Feb-21 06:39N 37°32' W 001°00'412.6
2018-Feb-21 06:22N 37°31' W 000°56'512.3
2018-Feb-21 05:59N 37°31' W 000°50'612.3
2018-Feb-21 05:30N 37°31' W 000°42'712.1
2018-Feb-21 04:58N 37°34' W 000°35'612.3
2018-Feb-21 04:30N 37°38' W 000°31'612.3
2018-Feb-21 04:00N 37°43' W 000°26'22512.8
2018-Feb-20 10:28N 40°58' E 001°59'612.4
2018-Feb-20 09:59N 41°03' E 002°03'612.4
2018-Feb-20 09:30N 41°09' E 002°07'612.6
2018-Feb-20 09:00N 41°14' E 002°11'612.1
2018-Feb-20 08:30N 41°20' E 002°10'1 1.7
2018-Feb-20 08:00N 41°20' E 002°09'0 0.0
2018-Feb-19 10:22N 41°20' E 002°09'1 2.2
2018-Feb-19 10:00N 41°21' E 002°09'3 6.8
2018-Feb-19 09:31N 41°17' E 002°11'2 3.8
2018-Feb-19 09:00N 41°17' E 002°13'15812.0
2018-Feb-18 19:48N 43°03' E 004°52'412.7
2018-Feb-18 19:30N 43°06' E 004°55'1012.1
2018-Feb-18 18:41N 43°15' E 004°59'313.4
2018-Feb-18 18:27N 43°18' E 004°58'223 6.4
2018-Feb-17 07:48N 39°50' E 003°13'412.0
2018-Feb-17 07:30N 39°49' E 003°09'1 0.0
2018-Feb-16 07:18N 39°50' E 003°08'1 0.4
2018-Feb-16 04:31N 39°49' E 003°09'0 0.0
2018-Feb-15 21:28N 39°49' E 003°09'23 7.8
2018-Feb-15 18:31N 40°10' E 002°56'012.8
2018-Feb-15 18:30N 40°10' E 002°56'812.7
2018-Feb-15 17:50N 40°15' E 002°47'412.9
2018-Feb-15 17:30N 40°17' E 002°42'712.8
2018-Feb-15 16:59N 40°21' E 002°35'192 4.4
2018-Feb-13 21:26N 37°57' W 000°09'1914.3
2018-Feb-13 20:07N 37°42' W 000°23'314.2
2018-Feb-13 19:57N 37°40' W 000°25'814.2
2018-Feb-13 19:21N 37°34' W 000°31'1313.7
2018-Feb-13 18:23N 37°25' W 000°44'513.3
2018-Feb-13 18:00N 37°22' W 000°49'22212.7
2018-Feb-13 00:30N 36°01' W 005°06'714.9
2018-Feb-13 00:00N 35°60' W 005°15'714.3
2018-Feb-12 23:31N 35°58' W 005°24'  
Track history (hours):
 
Tides and Currents Weather Stations Pressure Air Temp Water Temp Dewpoint Dewpoint Depression Visibility Wind Speed Wind Dir Waves Ship Positions

Scali Del Teatro

Last reported at 2018-Feb-21 06:39 UTC. Time now 2018-Feb-22 07:03 UTC.
Position N 37°32' W 001°00'.

Length 88 m; draft 4.8 m.

Type: Ship (hazmat cat D). MMSI: 229713000.

Date/timePositionNaut miles runAvg speedWind from/ knotsBaromVisibWave heightAir tempDewpointWater temp
2018-Feb-21 06:39N 37°32' W 001°00'412.6
2018-Feb-21 06:22N 37°31' W 000°56'512.3
2018-Feb-21 05:59N 37°31' W 000°50'612.3
2018-Feb-21 05:30N 37°31' W 000°42'712.1
2018-Feb-21 04:58N 37°34' W 000°35'612.3
2018-Feb-21 04:30N 37°38' W 000°31'612.3
2018-Feb-21 04:00N 37°43' W 000°26'22512.8
2018-Feb-20 10:28N 40°58' E 001°59'612.4
2018-Feb-20 09:59N 41°03' E 002°03'612.4
2018-Feb-20 09:30N 41°09' E 002°07'612.6
2018-Feb-20 09:00N 41°14' E 002°11'612.1
2018-Feb-20 08:30N 41°20' E 002°10'1 1.7
2018-Feb-20 08:00N 41°20' E 002°09'0 0.0
2018-Feb-19 10:22N 41°20' E 002°09'1 2.2
2018-Feb-19 10:00N 41°21' E 002°09'3 6.8
2018-Feb-19 09:31N 41°17' E 002°11'2 3.8
2018-Feb-19 09:00N 41°17' E 002°13'15812.0
2018-Feb-18 19:48N 43°03' E 004°52'412.7
2018-Feb-18 19:30N 43°06' E 004°55'1012.1
2018-Feb-18 18:41N 43°15' E 004°59'313.4
2018-Feb-18 18:27N 43°18' E 004°58'223 6.4
2018-Feb-17 07:48N 39°50' E 003°13'412.0
2018-Feb-17 07:30N 39°49' E 003°09'1 0.0
2018-Feb-16 07:18N 39°50' E 003°08'1 0.4
2018-Feb-16 04:31N 39°49' E 003°09'0 0.0
2018-Feb-15 21:28N 39°49' E 003°09'23 7.8
2018-Feb-15 18:31N 40°10' E 002°56'012.8
2018-Feb-15 18:30N 40°10' E 002°56'812.7
2018-Feb-15 17:50N 40°15' E 002°47'412.9
2018-Feb-15 17:30N 40°17' E 002°42'712.8
2018-Feb-15 16:59N 40°21' E 002°35'192 4.4
2018-Feb-13 21:26N 37°57' W 000°09'1914.3
2018-Feb-13 20:07N 37°42' W 000°23'314.2
2018-Feb-13 19:57N 37°40' W 000°25'814.2
2018-Feb-13 19:21N 37°34' W 000°31'1313.7
2018-Feb-13 18:23N 37°25' W 000°44'513.3
2018-Feb-13 18:00N 37°22' W 000°49'22212.7
2018-Feb-13 00:30N 36°01' W 005°06'714.9
2018-Feb-13 00:00N 35°60' W 005°15'714.3
2018-Feb-12 23:31N 35°58' W 005°24'  

Dump ship's entire track history